sensor_id;sensor_type;location;lat;lon;timestamp;pressure;altitude;pressure_sealevel;temperature;humidity
64908;BME280;69061;52.236;5.188;2023-04-27T00:02:13;102105.59;;;5.35;75.45
64908;BME280;69061;52.236;5.188;2023-04-27T00:04:40;102107.06;;;5.27;74.90
64908;BME280;69061;52.236;5.188;2023-04-27T00:07:07;102112.63;;;5.26;74.80
64908;BME280;69061;52.236;5.188;2023-04-27T00:09:33;102108.44;;;5.25;75.39
64908;BME280;69061;52.236;5.188;2023-04-27T00:12:01;102109.50;;;5.23;74.91
64908;BME280;69061;52.236;5.188;2023-04-27T00:14:28;102105.03;;;5.24;75.59
64908;BME280;69061;52.236;5.188;2023-04-27T00:16:55;102107.97;;;5.22;74.91
64908;BME280;69061;52.236;5.188;2023-04-27T00:19:21;102107.16;;;5.22;75.32
64908;BME280;69061;52.236;5.188;2023-04-27T00:21:48;102109.50;;;5.23;76.74
64908;BME280;69061;52.236;5.188;2023-04-27T00:24:14;102110.28;;;5.24;76.80
64908;BME280;69061;52.236;5.188;2023-04-27T00:26:40;102108.72;;;5.23;74.93
64908;BME280;69061;52.236;5.188;2023-04-27T00:29:08;102106.50;;;5.16;74.68
64908;BME280;69061;52.236;5.188;2023-04-27T00:31:35;102104.91;;;5.15;75.34
64908;BME280;69061;52.236;5.188;2023-04-27T00:34:02;102096.03;;;5.11;75.03
64908;BME280;69061;52.236;5.188;2023-04-27T00:36:28;102101.91;;;5.08;74.53
64908;BME280;69061;52.236;5.188;2023-04-27T00:38:55;102097.69;;;5.07;74.78
64908;BME280;69061;52.236;5.188;2023-04-27T00:41:21;102094.88;;;5.03;75.36
64908;BME280;69061;52.236;5.188;2023-04-27T00:43:48;102103.06;;;5.02;75.81
64908;BME280;69061;52.236;5.188;2023-04-27T00:46:16;102101.81;;;4.99;79.16
64908;BME280;69061;52.236;5.188;2023-04-27T00:48:44;102105.44;;;5.03;77.53
64908;BME280;69061;52.236;5.188;2023-04-27T00:51:11;102102.59;;;5.00;76.81
64908;BME280;69061;52.236;5.188;2023-04-27T00:53:38;102098.38;;;4.99;77.06
64908;BME280;69061;52.236;5.188;2023-04-27T00:56:05;102105.31;;;4.95;75.88
64908;BME280;69061;52.236;5.188;2023-04-27T00:58:32;102106.97;;;4.91;76.15
64908;BME280;69061;52.236;5.188;2023-04-27T01:00:59;102102.00;;;4.89;75.68
64908;BME280;69061;52.236;5.188;2023-04-27T01:03:27;102090.97;;;4.87;75.81
64908;BME280;69061;52.236;5.188;2023-04-27T01:05:55;102099.97;;;4.86;75.79
64908;BME280;69061;52.236;5.188;2023-04-27T01:08:25;102093.88;;;4.85;75.51
64908;BME280;69061;52.236;5.188;2023-04-27T01:10:52;102087.09;;;4.84;76.91
64908;BME280;69061;52.236;5.188;2023-04-27T01:13:19;102094.47;;;4.82;76.91
64908;BME280;69061;52.236;5.188;2023-04-27T01:15:45;102098.78;;;4.78;76.29
64908;BME280;69061;52.236;5.188;2023-04-27T01:18:12;102105.91;;;4.78;77.55
64908;BME280;69061;52.236;5.188;2023-04-27T01:20:40;102100.13;;;4.76;75.79
64908;BME280;69061;52.236;5.188;2023-04-27T01:23:12;102100.44;;;4.74;76.14
64908;BME280;69061;52.236;5.188;2023-04-27T01:25:39;102104.41;;;4.71;76.21
64908;BME280;69061;52.236;5.188;2023-04-27T01:28:05;102109.47;;;4.68;75.42
64908;BME280;69061;52.236;5.188;2023-04-27T01:30:32;102107.44;;;4.65;75.50
64908;BME280;69061;52.236;5.188;2023-04-27T01:32:59;102101.69;;;4.63;75.49
64908;BME280;69061;52.236;5.188;2023-04-27T01:35:25;102097.47;;;4.62;75.34
64908;BME280;69061;52.236;5.188;2023-04-27T01:37:52;102092.22;;;4.62;75.18
64908;BME280;69061;52.236;5.188;2023-04-27T01:40:20;102086.25;;;4.56;75.47
64908;BME280;69061;52.236;5.188;2023-04-27T01:42:46;102083.91;;;4.54;75.10
64908;BME280;69061;52.236;5.188;2023-04-27T01:45:13;102086.81;;;4.53;76.32
64908;BME280;69061;52.236;5.188;2023-04-27T01:47:40;102081.84;;;4.51;76.39
64908;BME280;69061;52.236;5.188;2023-04-27T01:50:07;102081.38;;;4.49;76.11
64908;BME280;69061;52.236;5.188;2023-04-27T01:52:33;102081.94;;;4.46;77.14
64908;BME280;69061;52.236;5.188;2023-04-27T01:55:00;102083.03;;;4.45;75.78
64908;BME280;69061;52.236;5.188;2023-04-27T01:57:28;102078.91;;;4.39;75.95
64908;BME280;69061;52.236;5.188;2023-04-27T01:59:55;102072.38;;;4.36;76.73
64908;BME280;69061;52.236;5.188;2023-04-27T02:02:21;102082.13;;;4.36;76.55
64908;BME280;69061;52.236;5.188;2023-04-27T02:04:48;102080.06;;;4.33;77.10
64908;BME280;69061;52.236;5.188;2023-04-27T02:07:14;102074.31;;;4.31;76.99
64908;BME280;69061;52.236;5.188;2023-04-27T02:09:41;102079.06;;;4.29;76.70
64908;BME280;69061;52.236;5.188;2023-04-27T02:12:08;102079.16;;;4.24;76.99
64908;BME280;69061;52.236;5.188;2023-04-27T02:14:35;102079.16;;;4.24;76.32
64908;BME280;69061;52.236;5.188;2023-04-27T02:17:02;102081.69;;;4.29;76.42
64908;BME280;69061;52.236;5.188;2023-04-27T02:19:29;102074.91;;;4.28;75.71
64908;BME280;69061;52.236;5.188;2023-04-27T02:21:56;102076.44;;;4.29;75.77
64908;BME280;69061;52.236;5.188;2023-04-27T02:24:22;102073.31;;;4.27;76.09
64908;BME280;69061;52.236;5.188;2023-04-27T02:26:49;102084.44;;;4.24;75.40
64908;BME280;69061;52.236;5.188;2023-04-27T02:29:15;102073.69;;;4.20;75.83
64908;BME280;69061;52.236;5.188;2023-04-27T02:31:44;102069.00;;;4.17;75.41
64908;BME280;69061;52.236;5.188;2023-04-27T02:34:11;102069.00;;;4.17;76.14
64908;BME280;69061;52.236;5.188;2023-04-27T02:36:37;102064.00;;;4.15;76.61
64908;BME280;69061;52.236;5.188;2023-04-27T02:39:04;102061.69;;;4.14;77.22
64908;BME280;69061;52.236;5.188;2023-04-27T02:41:31;102060.97;;;4.08;77.13
64908;BME280;69061;52.236;5.188;2023-04-27T02:43:57;102056.31;;;4.05;76.51
64908;BME280;69061;52.236;5.188;2023-04-27T02:46:24;102054.72;;;4.04;75.88
64908;BME280;69061;52.236;5.188;2023-04-27T02:48:52;102048.06;;;3.93;76.87
64908;BME280;69061;52.236;5.188;2023-04-27T02:51:19;102051.69;;;3.97;76.17
64908;BME280;69061;52.236;5.188;2023-04-27T02:53:45;102051.00;;;3.91;76.63
64908;BME280;69061;52.236;5.188;2023-04-27T02:56:12;102053.34;;;3.93;75.79
64908;BME280;69061;52.236;5.188;2023-04-27T02:58:38;102054.09;;;3.93;76.74
64908;BME280;69061;52.236;5.188;2023-04-27T03:01:05;102056.25;;;3.91;76.94
64908;BME280;69061;52.236;5.188;2023-04-27T03:03:32;102056.03;;;3.87;76.90
64908;BME280;69061;52.236;5.188;2023-04-27T03:06:00;102062.28;;;3.92;77.88
64908;BME280;69061;52.236;5.188;2023-04-27T03:08:27;102054.09;;;3.93;78.21
64908;BME280;69061;52.236;5.188;2023-04-27T03:10:54;102054.88;;;3.94;78.59
64908;BME280;69061;52.236;5.188;2023-04-27T03:13:20;102076.13;;;3.97;78.26
64908;BME280;69061;52.236;5.188;2023-04-27T03:15:47;102068.53;;;3.96;80.00
64908;BME280;69061;52.236;5.188;2023-04-27T03:18:13;102078.28;;;3.95;79.21
64908;BME280;69061;52.236;5.188;2023-04-27T03:20:40;102069.88;;;3.93;78.70
64908;BME280;69061;52.236;5.188;2023-04-27T03:23:08;102078.28;;;3.95;78.67
64908;BME280;69061;52.236;5.188;2023-04-27T03:25:34;102085.38;;;3.95;77.71
64908;BME280;69061;52.236;5.188;2023-04-27T03:28:01;102073.56;;;3.92;78.26
64908;BME280;69061;52.236;5.188;2023-04-27T03:30:27;102070.75;;;3.88;77.46
64908;BME280;69061;52.236;5.188;2023-04-27T03:32:54;102079.41;;;3.89;78.77
64908;BME280;69061;52.236;5.188;2023-04-27T03:35:22;102074.94;;;3.90;80.19
64908;BME280;69061;52.236;5.188;2023-04-27T03:37:48;102078.06;;;3.92;79.42
64908;BME280;69061;52.236;5.188;2023-04-27T03:40:16;102066.78;;;3.91;78.76
64908;BME280;69061;52.236;5.188;2023-04-27T03:42:43;102067.53;;;3.92;79.30
64908;BME280;69061;52.236;5.188;2023-04-27T03:45:09;102075.16;;;3.93;78.85
64908;BME280;69061;52.236;5.188;2023-04-27T03:47:36;102073.56;;;3.92;78.24
64908;BME280;69061;52.236;5.188;2023-04-27T03:50:03;102078.13;;;3.86;77.93
64908;BME280;69061;52.236;5.188;2023-04-27T03:52:30;102075.78;;;3.85;77.96
64908;BME280;69061;52.236;5.188;2023-04-27T03:54:57;102080.84;;;3.81;78.63
64908;BME280;69061;52.236;5.188;2023-04-27T03:57:24;102074.28;;;3.79;78.43
64908;BME280;69061;52.236;5.188;2023-04-27T03:59:51;102073.53;;;3.78;78.99
64908;BME280;69061;52.236;5.188;2023-04-27T04:02:17;102082.47;;;3.77;78.68
64908;BME280;69061;52.236;5.188;2023-04-27T04:04:44;102082.47;;;3.77;79.81
64908;BME280;69061;52.236;5.188;2023-04-27T04:07:10;102080.94;;;3.76;78.58
64908;BME280;69061;52.236;5.188;2023-04-27T04:09:37;102074.66;;;3.72;77.97
64908;BME280;69061;52.236;5.188;2023-04-27T04:12:04;102076.50;;;3.71;78.49
64908;BME280;69061;52.236;5.188;2023-04-27T04:14:32;102081.47;;;3.73;79.29
64908;BME280;69061;52.236;5.188;2023-04-27T04:16:59;102089.31;;;3.78;78.84
64908;BME280;69061;52.236;5.188;2023-04-27T04:19:25;102079.84;;;3.77;81.71
64908;BME280;69061;52.236;5.188;2023-04-27T04:21:52;102073.94;;;3.85;84.88
64908;BME280;69061;52.236;5.188;2023-04-27T04:24:18;102087.47;;;3.98;83.78
64908;BME280;69061;52.236;5.188;2023-04-27T04:26:45;102099.22;;;4.00;80.38
64908;BME280;69061;52.236;5.188;2023-04-27T04:29:12;102091.91;;;3.97;78.58
64908;BME280;69061;52.236;5.188;2023-04-27T04:31:40;102094.31;;;3.94;78.18
64908;BME280;69061;52.236;5.188;2023-04-27T04:34:07;102095.50;;;3.87;78.13
64908;BME280;69061;52.236;5.188;2023-04-27T04:36:34;102097.34;;;3.87;78.65
64908;BME280;69061;52.236;5.188;2023-04-27T04:39:01;102105.78;;;3.84;79.12
64908;BME280;69061;52.236;5.188;2023-04-27T04:41:29;102102.44;;;3.78;79.29
64908;BME280;69061;52.236;5.188;2023-04-27T04:43:56;102102.97;;;3.80;78.85
64908;BME280;69061;52.236;5.188;2023-04-27T04:46:23;102101.09;;;3.81;79.87
64908;BME280;69061;52.236;5.188;2023-04-27T04:48:51;102110.97;;;3.89;82.65
64908;BME280;69061;52.236;5.188;2023-04-27T04:51:18;102103.31;;;3.93;80.98
64908;BME280;69061;52.236;5.188;2023-04-27T04:53:44;102105.88;;;3.98;80.44
64908;BME280;69061;52.236;5.188;2023-04-27T04:56:12;102114.81;;;3.97;79.55
64908;BME280;69061;52.236;5.188;2023-04-27T04:58:39;102113.19;;;4.01;80.43
64908;BME280;69061;52.236;5.188;2023-04-27T05:01:05;102106.88;;;4.02;78.23
64908;BME280;69061;52.236;5.188;2023-04-27T05:03:33;102106.28;;;4.05;77.39
64908;BME280;69061;52.236;5.188;2023-04-27T05:06:01;102102.84;;;4.04;77.08
64908;BME280;69061;52.236;5.188;2023-04-27T05:08:27;102106.75;;;4.07;76.88
64908;BME280;69061;52.236;5.188;2023-04-27T05:10:54;102104.06;;;4.12;77.92
64908;BME280;69061;52.236;5.188;2023-04-27T05:13:21;102110.31;;;4.16;77.32
64908;BME280;69061;52.236;5.188;2023-04-27T05:15:49;102116.56;;;4.20;78.21
64908;BME280;69061;52.236;5.188;2023-04-27T05:18:15;102117.06;;;4.22;79.05
64908;BME280;69061;52.236;5.188;2023-04-27T05:20:42;102101.47;;;4.26;80.59
64908;BME280;69061;52.236;5.188;2023-04-27T05:23:10;102113.63;;;4.41;81.27
64908;BME280;69061;52.236;5.188;2023-04-27T05:25:36;102112.59;;;4.56;83.89
64908;BME280;69061;52.236;5.188;2023-04-27T05:28:06;102109.47;;;4.68;82.97
64908;BME280;69061;52.236;5.188;2023-04-27T05:30:33;102118.19;;;4.82;80.32
64908;BME280;69061;52.236;5.188;2023-04-27T05:32:59;102115.94;;;4.89;79.99
64908;BME280;69061;52.236;5.188;2023-04-27T05:35:26;102115.56;;;4.96;78.61
64908;BME280;69061;52.236;5.188;2023-04-27T05:37:53;102119.28;;;5.09;80.04
64908;BME280;69061;52.236;5.188;2023-04-27T05:40:21;102120.34;;;5.22;78.78
64908;BME280;69061;52.236;5.188;2023-04-27T05:42:47;102118.41;;;5.28;78.16
64908;BME280;69061;52.236;5.188;2023-04-27T05:45:14;102120.06;;;5.37;78.64
64908;BME280;69061;52.236;5.188;2023-04-27T05:47:41;102113.38;;;5.54;80.58
64908;BME280;69061;52.236;5.188;2023-04-27T05:50:08;102117.34;;;5.79;78.91
64908;BME280;69061;52.236;5.188;2023-04-27T05:52:35;102112.97;;;5.97;78.70
64908;BME280;69061;52.236;5.188;2023-04-27T05:55:04;102117.63;;;6.14;76.21
64908;BME280;69061;52.236;5.188;2023-04-27T05:57:33;102115.34;;;6.21;74.37
64908;BME280;69061;52.236;5.188;2023-04-27T05:59:59;102115.09;;;6.32;73.77
64908;BME280;69061;52.236;5.188;2023-04-27T06:02:26;102109.53;;;6.33;72.81
64908;BME280;69061;52.236;5.188;2023-04-27T06:04:53;102108.00;;;6.41;73.06
64908;BME280;69061;52.236;5.188;2023-04-27T06:07:19;102109.19;;;6.57;72.83
64908;BME280;69061;52.236;5.188;2023-04-27T06:09:45;102111.09;;;6.66;71.92
64908;BME280;69061;52.236;5.188;2023-04-27T06:12:12;102110.66;;;6.72;72.21
64908;BME280;69061;52.236;5.188;2023-04-27T06:14:40;102109.00;;;6.85;71.42
64908;BME280;69061;52.236;5.188;2023-04-27T06:17:07;102108.25;;;6.94;70.95
64908;BME280;69061;52.236;5.188;2023-04-27T06:19:33;102108.13;;;6.99;71.24
64908;BME280;69061;52.236;5.188;2023-04-27T06:22:00;102118.75;;;7.16;71.29
64908;BME280;69061;52.236;5.188;2023-04-27T06:24:27;102118.72;;;7.07;69.46
64908;BME280;69061;52.236;5.188;2023-04-27T06:26:55;102115.16;;;7.12;69.78
64908;BME280;69061;52.236;5.188;2023-04-27T06:29:22;102106.94;;;7.22;70.38
64908;BME280;69061;52.236;5.188;2023-04-27T06:31:50;102116.78;;;7.39;70.07
64908;BME280;69061;52.236;5.188;2023-04-27T06:34:20;102118.78;;;7.34;67.81
64908;BME280;69061;52.236;5.188;2023-04-27T06:36:47;102122.06;;;7.39;68.84
64908;BME280;69061;52.236;5.188;2023-04-27T06:39:13;102113.19;;;7.44;67.59
64908;BME280;69061;52.236;5.188;2023-04-27T06:41:40;102119.28;;;7.53;68.64
64908;BME280;69061;52.236;5.188;2023-04-27T06:44:06;102122.44;;;7.73;68.52
64908;BME280;69061;52.236;5.188;2023-04-27T06:46:33;102127.06;;;7.58;65.82
64908;BME280;69061;52.236;5.188;2023-04-27T06:49:01;102125.84;;;7.82;67.21
64908;BME280;69061;52.236;5.188;2023-04-27T06:51:28;102121.94;;;7.88;65.71
64908;BME280;69061;52.236;5.188;2023-04-27T06:53:54;102126.47;;;7.97;65.37
64908;BME280;69061;52.236;5.188;2023-04-27T06:56:21;102118.06;;;8.12;65.72
64908;BME280;69061;52.236;5.188;2023-04-27T06:58:48;102112.28;;;8.19;64.88
64908;BME280;69061;52.236;5.188;2023-04-27T07:01:14;102112.25;;;8.27;64.94
64908;BME280;69061;52.236;5.188;2023-04-27T07:03:41;102117.38;;;8.33;63.47
64908;BME280;69061;52.236;5.188;2023-04-27T07:06:09;102120.97;;;8.37;62.72
64908;BME280;69061;52.236;5.188;2023-04-27T07:08:35;102117.06;;;8.43;63.33
64908;BME280;69061;52.236;5.188;2023-04-27T07:11:02;102119.38;;;8.53;62.53
64908;BME280;69061;52.236;5.188;2023-04-27T07:13:29;102121.97;;;8.71;62.19
64908;BME280;69061;52.236;5.188;2023-04-27T07:15:55;102121.47;;;8.86;62.29
64908;BME280;69061;52.236;5.188;2023-04-27T07:18:23;102114.84;;;9.01;60.78
64908;BME280;69061;52.236;5.188;2023-04-27T07:20:50;102121.00;;;9.14;59.35
64908;BME280;69061;52.236;5.188;2023-04-27T07:23:29;102120.56;;;9.12;54.75
64908;BME280;69061;52.236;5.188;2023-04-27T07:25:56;102119.00;;;9.11;56.61
64908;BME280;69061;52.236;5.188;2023-04-27T07:28:23;102118.44;;;9.26;57.47
64908;BME280;69061;52.236;5.188;2023-04-27T07:30:49;102119.81;;;9.33;55.64
64908;BME280;69061;52.236;5.188;2023-04-27T07:33:16;102117.16;;;9.33;54.32
64908;BME280;69061;52.236;5.188;2023-04-27T07:35:43;102120.66;;;9.46;55.09
64908;BME280;69061;52.236;5.188;2023-04-27T07:38:09;102124.34;;;9.53;54.30
64908;BME280;69061;52.236;5.188;2023-04-27T07:40:38;102120.09;;;9.61;53.05
64908;BME280;69061;52.236;5.188;2023-04-27T07:43:04;102105.47;;;9.76;55.23
64908;BME280;69061;52.236;5.188;2023-04-27T07:45:31;102099.28;;;9.84;52.99
64908;BME280;69061;52.236;5.188;2023-04-27T07:47:58;102111.31;;;10.03;52.78
64908;BME280;69061;52.236;5.188;2023-04-27T07:50:26;102111.47;;;10.19;53.20
64908;BME280;69061;52.236;5.188;2023-04-27T07:52:54;102109.84;;;10.26;51.81
64908;BME280;69061;52.236;5.188;2023-04-27T07:55:22;102108.81;;;10.52;53.47
64908;BME280;69061;52.236;5.188;2023-04-27T07:57:51;102111.47;;;10.65;50.17
64908;BME280;69061;52.236;5.188;2023-04-27T08:00:18;102106.50;;;10.75;50.53
64908;BME280;69061;52.236;5.188;2023-04-27T08:02:45;102118.69;;;10.89;50.73
64908;BME280;69061;52.236;5.188;2023-04-27T08:05:12;102118.25;;;10.74;48.17
64908;BME280;69061;52.236;5.188;2023-04-27T08:07:39;102114.81;;;10.86;48.12
64908;BME280;69061;52.236;5.188;2023-04-27T08:10:07;102111.94;;;10.91;47.36
64908;BME280;69061;52.236;5.188;2023-04-27T08:12:34;102121.13;;;11.06;47.64
64908;BME280;69061;52.236;5.188;2023-04-27T08:15:02;102124.34;;;11.00;46.15
64908;BME280;69061;52.236;5.188;2023-04-27T08:17:28;102117.00;;;11.21;46.54
64908;BME280;69061;52.236;5.188;2023-04-27T08:19:55;102118.53;;;11.35;46.71
64908;BME280;69061;52.236;5.188;2023-04-27T08:22:21;102110.09;;;11.45;46.29
64908;BME280;69061;52.236;5.188;2023-04-27T08:24:48;102122.59;;;11.57;46.28
64908;BME280;69061;52.236;5.188;2023-04-27T08:27:14;102125.47;;;11.64;46.45
64908;BME280;69061;52.236;5.188;2023-04-27T08:29:44;102119.84;;;11.82;46.67
64908;BME280;69061;52.236;5.188;2023-04-27T08:32:13;102110.84;;;11.86;44.36
64908;BME280;69061;52.236;5.188;2023-04-27T08:34:40;102111.66;;;12.03;44.86
64908;BME280;69061;52.236;5.188;2023-04-27T08:37:09;102106.13;;;12.24;47.56
64908;BME280;69061;52.236;5.188;2023-04-27T08:39:35;102106.03;;;12.20;43.76
64908;BME280;69061;52.236;5.188;2023-04-27T08:42:09;102112.75;;;12.14;42.28
64908;BME280;69061;52.236;5.188;2023-04-27T08:44:37;102111.56;;;12.27;43.42
64908;BME280;69061;52.236;5.188;2023-04-27T08:47:04;102103.91;;;12.42;44.71
64908;BME280;69061;52.236;5.188;2023-04-27T08:49:32;102103.22;;;12.61;45.28
64908;BME280;69061;52.236;5.188;2023-04-27T08:52:00;102108.88;;;12.75;43.88
64908;BME280;69061;52.236;5.188;2023-04-27T08:54:27;102107.16;;;12.83;43.30
64908;BME280;69061;52.236;5.188;2023-04-27T08:56:53;102108.44;;;12.89;43.83
64908;BME280;69061;52.236;5.188;2023-04-27T08:59:20;102113.34;;;13.03;44.19
64908;BME280;69061;52.236;5.188;2023-04-27T09:01:48;102110.81;;;13.10;42.74
64908;BME280;69061;52.236;5.188;2023-04-27T09:04:15;102114.81;;;13.20;42.00
64908;BME280;69061;52.236;5.188;2023-04-27T09:06:44;102106.69;;;13.32;42.09
64908;BME280;69061;52.236;5.188;2023-04-27T09:09:20;102107.22;;;13.58;41.79
64908;BME280;69061;52.236;5.188;2023-04-27T09:11:47;102106.66;;;13.88;41.68
64908;BME280;69061;52.236;5.188;2023-04-27T09:14:16;102097.22;;;13.94;38.82
64908;BME280;69061;52.236;5.188;2023-04-27T09:16:43;102099.31;;;14.04;40.08
64908;BME280;69061;52.236;5.188;2023-04-27T09:19:10;102103.06;;;14.23;40.68
64908;BME280;69061;52.236;5.188;2023-04-27T09:21:37;102091.53;;;14.42;40.37
64908;BME280;69061;52.236;5.188;2023-04-27T09:24:12;102096.00;;;14.57;38.81
64908;BME280;69061;52.236;5.188;2023-04-27T09:26:39;102096.47;;;14.63;38.89
64908;BME280;69061;52.236;5.188;2023-04-27T09:29:07;102093.16;;;14.70;38.87
64908;BME280;69061;52.236;5.188;2023-04-27T09:31:34;102084.09;;;14.78;39.66
64908;BME280;69061;52.236;5.188;2023-04-27T09:34:01;102087.78;;;14.96;38.79
64908;BME280;69061;52.236;5.188;2023-04-27T09:36:29;102081.78;;;15.07;38.58
64908;BME280;69061;52.236;5.188;2023-04-27T09:38:56;102089.00;;;15.03;37.29
64908;BME280;69061;52.236;5.188;2023-04-27T09:41:25;102089.19;;;15.17;38.19
64908;BME280;69061;52.236;5.188;2023-04-27T09:43:53;102083.78;;;15.13;37.07
64908;BME280;69061;52.236;5.188;2023-04-27T09:46:21;102081.09;;;15.13;36.53
64908;BME280;69061;52.236;5.188;2023-04-27T09:48:49;102089.59;;;15.19;36.19
64908;BME280;69061;52.236;5.188;2023-04-27T09:51:17;102080.69;;;15.42;36.98
64908;BME280;69061;52.236;5.188;2023-04-27T09:53:45;102077.84;;;15.61;37.50
64908;BME280;69061;52.236;5.188;2023-04-27T09:56:25;102078.19;;;15.56;34.69
64908;BME280;69061;52.236;5.188;2023-04-27T09:59:20;102082.50;;;15.68;36.87
64908;BME280;69061;52.236;5.188;2023-04-27T10:01:54;102078.44;;;15.81;36.26
64908;BME280;69061;52.236;5.188;2023-04-27T10:04:44;102076.69;;;15.96;38.04
64908;BME280;69061;52.236;5.188;2023-04-27T10:07:17;102077.63;;;16.15;36.73
64908;BME280;69061;52.236;5.188;2023-04-27T10:09:45;102081.50;;;16.25;34.99
64908;BME280;69061;52.236;5.188;2023-04-27T10:12:15;102081.22;;;15.92;33.19
64908;BME280;69061;52.236;5.188;2023-04-27T10:14:50;102076.63;;;15.89;34.42
64908;BME280;69061;52.236;5.188;2023-04-27T10:17:18;102076.94;;;15.84;34.52
64908;BME280;69061;52.236;5.188;2023-04-27T10:19:55;102076.44;;;15.75;35.17
64908;BME280;69061;52.236;5.188;2023-04-27T10:22:22;102076.84;;;15.77;35.71
64908;BME280;69061;52.236;5.188;2023-04-27T10:24:50;102073.47;;;15.80;36.06
64908;BME280;69061;52.236;5.188;2023-04-27T10:27:19;102081.22;;;15.89;35.79
64908;BME280;69061;52.236;5.188;2023-04-27T10:29:47;102078.66;;;16.03;35.16
64908;BME280;69061;52.236;5.188;2023-04-27T10:32:18;102081.44;;;16.14;35.57
64908;BME280;69061;52.236;5.188;2023-04-27T10:34:47;102070.78;;;16.21;36.07
64908;BME280;69061;52.236;5.188;2023-04-27T10:37:15;102075.06;;;16.33;36.30
64908;BME280;69061;52.236;5.188;2023-04-27T10:39:43;102081.31;;;16.48;35.30
64908;BME280;69061;52.236;5.188;2023-04-27T10:42:10;102072.91;;;16.53;34.75
64908;BME280;69061;52.236;5.188;2023-04-27T10:44:38;102071.06;;;16.61;35.11
64908;BME280;69061;52.236;5.188;2023-04-27T10:47:12;102073.31;;;16.55;34.19
64908;BME280;69061;52.236;5.188;2023-04-27T10:49:39;102077.91;;;16.55;34.03
64908;BME280;69061;52.236;5.188;2023-04-27T10:52:06;102080.13;;;16.42;33.53
64908;BME280;69061;52.236;5.188;2023-04-27T10:54:33;102075.91;;;16.41;35.79
64908;BME280;69061;52.236;5.188;2023-04-27T10:57:04;102059.88;;;16.52;34.95
64908;BME280;69061;52.236;5.188;2023-04-27T10:59:31;102070.38;;;16.75;33.50
64908;BME280;69061;52.236;5.188;2023-04-27T11:01:59;102065.41;;;16.80;33.62
64908;BME280;69061;52.236;5.188;2023-04-27T11:04:37;102070.16;;;17.02;33.07
64908;BME280;69061;52.236;5.188;2023-04-27T11:07:04;102066.38;;;17.13;33.98
64908;BME280;69061;52.236;5.188;2023-04-27T11:09:33;102063.72;;;17.21;33.03
64908;BME280;69061;52.236;5.188;2023-04-27T11:12:00;102056.81;;;17.23;32.78
64908;BME280;69061;52.236;5.188;2023-04-27T11:14:26;102051.97;;;16.77;32.90
64908;BME280;69061;52.236;5.188;2023-04-27T11:16:54;102049.69;;;16.79;34.33
64908;BME280;69061;52.236;5.188;2023-04-27T11:19:22;102041.75;;;16.97;33.99
64908;BME280;69061;52.236;5.188;2023-04-27T11:21:48;102035.31;;;17.20;33.88
64908;BME280;69061;52.236;5.188;2023-04-27T11:24:15;102029.59;;;17.28;33.04
64908;BME280;69061;52.236;5.188;2023-04-27T11:26:42;102032.31;;;17.39;32.67
64908;BME280;69061;52.236;5.188;2023-04-27T11:29:09;102036.19;;;17.53;32.73
64908;BME280;69061;52.236;5.188;2023-04-27T11:31:40;102029.66;;;17.68;32.42
64908;BME280;69061;52.236;5.188;2023-04-27T11:34:07;102025.47;;;17.85;32.43
64908;BME280;69061;52.236;5.188;2023-04-27T11:36:36;102023.56;;;18.04;32.98
64908;BME280;69061;52.236;5.188;2023-04-27T11:39:02;102020.09;;;18.14;32.12
64908;BME280;69061;52.236;5.188;2023-04-27T11:41:32;102022.38;;;17.68;32.64
64908;BME280;69061;52.236;5.188;2023-04-27T11:44:03;102024.25;;;17.50;31.83
64908;BME280;69061;52.236;5.188;2023-04-27T11:46:32;102011.94;;;17.31;31.81
64908;BME280;69061;52.236;5.188;2023-04-27T11:49:00;102026.81;;;16.99;32.40
64908;BME280;69061;52.236;5.188;2023-04-27T11:51:29;102015.91;;;16.74;32.20
64908;BME280;69061;52.236;5.188;2023-04-27T11:54:00;102015.38;;;16.47;31.72
64908;BME280;69061;52.236;5.188;2023-04-27T11:56:33;102024.28;;;16.65;32.73
64908;BME280;69061;52.236;5.188;2023-04-27T11:59:00;102014.41;;;16.80;32.96
64908;BME280;69061;52.236;5.188;2023-04-27T12:01:27;102021.41;;;16.96;33.34
64908;BME280;69061;52.236;5.188;2023-04-27T12:03:54;102013.81;;;17.16;33.08
64908;BME280;69061;52.236;5.188;2023-04-27T12:06:23;102011.94;;;17.31;32.89
64908;BME280;69061;52.236;5.188;2023-04-27T12:08:50;102016.97;;;17.47;32.35
64908;BME280;69061;52.236;5.188;2023-04-27T12:11:18;102015.75;;;17.19;31.58
64908;BME280;69061;52.236;5.188;2023-04-27T12:13:45;102014.53;;;17.06;31.93
64908;BME280;69061;52.236;5.188;2023-04-27T12:16:12;102007.97;;;16.92;31.74
64908;BME280;69061;52.236;5.188;2023-04-27T12:18:39;102014.53;;;17.02;32.80
64908;BME280;69061;52.236;5.188;2023-04-27T12:21:05;102012.25;;;17.08;31.77
64908;BME280;69061;52.236;5.188;2023-04-27T12:23:32;102016.88;;;17.11;32.80
64908;BME280;69061;52.236;5.188;2023-04-27T12:25:59;102002.31;;;17.26;33.05
64908;BME280;69061;52.236;5.188;2023-04-27T12:28:26;102000.84;;;17.47;33.23
64908;BME280;69061;52.236;5.188;2023-04-27T12:30:53;101996.25;;;17.51;32.06
64908;BME280;69061;52.236;5.188;2023-04-27T12:33:20;101993.13;;;17.31;32.09
64908;BME280;69061;52.236;5.188;2023-04-27T12:35:46;101982.31;;;17.13;32.38
64908;BME280;69061;52.236;5.188;2023-04-27T12:38:13;101986.16;;;17.15;32.50
64908;BME280;69061;52.236;5.188;2023-04-27T12:40:40;101990.81;;;17.33;33.57
64908;BME280;69061;52.236;5.188;2023-04-27T12:43:07;101976.25;;;17.45;33.34
64908;BME280;69061;52.236;5.188;2023-04-27T12:45:35;101983.56;;;17.55;32.51
64908;BME280;69061;52.236;5.188;2023-04-27T12:48:02;101987.81;;;17.63;33.29
64908;BME280;69061;52.236;5.188;2023-04-27T12:50:29;101999.34;;;17.82;32.49
64908;BME280;69061;52.236;5.188;2023-04-27T12:52:56;101975.94;;;17.93;32.11
64908;BME280;69061;52.236;5.188;2023-04-27T12:55:23;101984.00;;;18.08;32.57
64908;BME280;69061;52.236;5.188;2023-04-27T12:57:50;101982.41;;;18.21;33.34